Time;durP1;ratioP1;P1;durP2;ratioP2;P2;SDS_P1;SDS_P2;PMS_P1;PMS_P2;Temp;Humidity;BMP_temperature;BMP_pressure;BME280_temperature;BME280_humidity;BME280_pressure;Samples;Min_cycle;Max_cycle;Signal;HPM_P1;HPM_P2
2022/09/08 00:02:16;;;;;;;21.45;18.90;;;;;;;;;;5071903;28;20041;-73
2022/09/08 00:04:42;;;;;;;23.23;19.35;;;;;;;;;;5039531;28;20424;-73
2022/09/08 00:07:08;;;;;;;24.52;21.02;;;;;;;;;;5058585;28;20396;-67
2022/09/08 00:09:35;;;;;;;24.75;19.15;;;;;;;;;;5070809;28;20436;-67
2022/09/08 00:12:01;;;;;;;24.98;20.60;;;;;;;;;;5070352;28;20075;-67
2022/09/08 00:14:28;;;;;;;22.65;19.15;;;;;;;;;;5070243;28;20041;-67
2022/09/08 00:16:54;;;;;;;25.58;21.75;;;;;;;;;;5052729;28;20120;-74
2022/09/08 00:19:20;;;;;;;25.60;20.80;;;;;;;;;;5052733;28;20098;-74
2022/09/08 00:21:46;;;;;;;26.67;22.02;;;;;;;;;;5052935;28;20041;-73
2022/09/08 00:24:12;;;;;;;24.83;21.77;;;;;;;;;;5056625;28;20040;-67
2022/09/08 00:26:38;;;;;;;26.40;22.45;;;;;;;;;;5070362;28;20040;-67
2022/09/08 00:29:04;;;;;;;26.90;22.63;;;;;;;;;;5057903;28;20037;-67
2022/09/08 00:31:30;;;;;;;29.48;24.25;;;;;;;;;;5053261;28;20048;-67
2022/09/08 00:33:57;;;;;;;29.88;23.23;;;;;;;;;;5070282;28;20047;-67
2022/09/08 00:36:23;;;;;;;28.73;24.27;;;;;;;;;;5064430;28;20041;-73
2022/09/08 00:38:51;;;;;;;30.90;25.17;;;;;;;;;;5041392;28;20049;-73
2022/09/08 00:41:21;;;;;;;32.70;24.25;;;;;;;;;;5052571;28;20037;-74
2022/09/08 00:43:49;;;;;;;30.92;24.35;;;;;;;;;;5050843;28;20041;-67
2022/09/08 00:46:20;;;;;;;33.25;25.55;;;;;;;;;;5067468;28;20048;-67
2022/09/08 00:48:49;;;;;;;32.08;25.55;;;;;;;;;;5070196;28;20037;-67
2022/09/08 00:51:16;;;;;;;29.75;24.98;;;;;;;;;;5069618;28;20040;-67
2022/09/08 00:53:44;;;;;;;31.77;25.65;;;;;;;;;;5071516;28;20397;-68
2022/09/08 00:56:10;;;;;;;30.45;26.10;;;;;;;;;;5053389;28;20105;-67
2022/09/08 00:58:37;;;;;;;35.63;27.80;;;;;;;;;;5071119;28;20072;-67
2022/09/08 01:01:04;;;;;;;34.30;28.23;;;;;;;;;;5070086;28;20562;-67
2022/09/08 01:03:31;;;;;;;36.85;28.10;;;;;;;;;;5065552;28;20486;-74
2022/09/08 01:06:18;;;;;;;37.83;28.08;;;;;;;;;;5052393;28;20067;-73
2022/09/08 01:14:42;;;;;;;37.15;29.13;;;;;;;;;;5074419;28;20483;-68
2022/09/08 01:17:35;;;;;;;35.75;28.75;;;;;;;;;;5070451;28;20051;-67
2022/09/08 01:20:02;;;;;;;36.58;29.40;;;;;;;;;;5054491;28;20084;-74
2022/09/08 01:22:31;;;;;;;38.38;28.75;;;;;;;;;;5054194;28;20080;-74
2022/09/08 01:24:57;;;;;;;37.00;29.73;;;;;;;;;;5054180;28;20044;-67
2022/09/08 01:27:25;;;;;;;37.63;31.77;;;;;;;;;;5068159;28;20071;-67
2022/09/08 01:29:56;;;;;;;36.92;30.45;;;;;;;;;;5063087;28;20493;-67
2022/09/08 01:32:23;;;;;;;38.67;30.38;;;;;;;;;;5072765;28;20048;-73
2022/09/08 01:34:50;;;;;;;36.25;29.80;;;;;;;;;;5074155;28;20124;-68
2022/09/08 01:37:16;;;;;;;38.50;31.58;;;;;;;;;;5073469;28;20056;-67
2022/09/08 01:39:43;;;;;;;37.40;30.92;;;;;;;;;;5074019;28;20047;-68
2022/09/08 01:42:09;;;;;;;39.22;30.33;;;;;;;;;;5061609;28;20489;-74
2022/09/08 01:44:35;;;;;;;40.78;30.25;;;;;;;;;;5053730;28;20075;-74
2022/09/08 01:47:01;;;;;;;41.90;31.20;;;;;;;;;;5063376;28;20056;-67
2022/09/08 01:49:27;;;;;;;38.78;30.40;;;;;;;;;;5072750;28;20528;-67
2022/09/08 01:51:53;;;;;;;37.67;31.55;;;;;;;;;;5072853;28;20066;-73
2022/09/08 01:54:20;;;;;;;45.25;33.53;;;;;;;;;;5058897;28;20045;-74
2022/09/08 01:56:46;;;;;;;41.50;32.05;;;;;;;;;;5043976;28;20051;-67
2022/09/08 01:59:12;;;;;;;46.20;32.75;;;;;;;;;;5073936;28;20032;-67
2022/09/08 02:01:38;;;;;;;44.90;34.10;;;;;;;;;;5063090;28;20508;-67
2022/09/08 02:04:05;;;;;;;41.60;33.85;;;;;;;;;;5034811;28;20174;-67
2022/09/08 02:06:31;;;;;;;47.08;34.78;;;;;;;;;;5038464;28;20045;-67
2022/09/08 02:08:57;;;;;;;44.03;34.00;;;;;;;;;;5045814;28;20392;-67
2022/09/08 02:11:23;;;;;;;40.60;33.47;;;;;;;;;;5068763;28;20064;-74
2022/09/08 02:13:49;;;;;;;44.22;33.63;;;;;;;;;;5053168;28;20063;-73
2022/09/08 02:16:16;;;;;;;45.17;34.70;;;;;;;;;;5068694;28;20045;-74
2022/09/08 02:18:42;;;;;;;41.28;32.75;;;;;;;;;;5044960;28;20110;-67
2022/09/08 02:21:13;;;;;;;46.33;36.47;;;;;;;;;;5059264;28;20040;-67
2022/09/08 02:23:40;;;;;;;43.50;34.53;;;;;;;;;;5048342;28;20049;-74
2022/09/08 02:26:06;;;;;;;46.28;35.03;;;;;;;;;;5054191;28;20037;-74
2022/09/08 02:28:32;;;;;;;41.55;34.17;;;;;;;;;;5057874;28;20045;-67
2022/09/08 02:31:02;;;;;;;43.70;34.60;;;;;;;;;;5073265;28;20094;-67
2022/09/08 02:33:29;;;;;;;42.50;34.50;;;;;;;;;;5071249;28;20081;-67
2022/09/08 02:35:55;;;;;;;44.67;35.40;;;;;;;;;;5055337;28;20059;-67
2022/09/08 02:38:24;;;;;;;43.63;35.83;;;;;;;;;;5058845;28;20037;-67
2022/09/08 02:40:50;;;;;;;44.22;33.95;;;;;;;;;;5071928;28;20044;-67
2022/09/08 02:43:17;;;;;;;44.33;35.90;;;;;;;;;;5071534;28;20055;-67
2022/09/08 02:45:44;;;;;;;45.60;35.03;;;;;;;;;;5072495;28;20532;-67
2022/09/08 02:48:10;;;;;;;46.00;36.15;;;;;;;;;;5071507;28;20119;-67
2022/09/08 02:50:36;;;;;;;44.45;35.75;;;;;;;;;;5071262;28;20040;-68
2022/09/08 02:53:02;;;;;;;46.60;36.10;;;;;;;;;;5072914;28;20040;-67
2022/09/08 02:55:28;;;;;;;46.33;35.10;;;;;;;;;;5054355;28;20040;-67
2022/09/08 02:57:54;;;;;;;46.00;35.53;;;;;;;;;;5071712;28;20511;-67
2022/09/08 03:00:20;;;;;;;46.03;36.40;;;;;;;;;;5071532;28;20043;-67
2022/09/08 03:02:47;;;;;;;45.28;35.80;;;;;;;;;;5072544;28;20542;-67
2022/09/08 03:05:13;;;;;;;43.72;36.05;;;;;;;;;;5071357;28;20599;-67
2022/09/08 03:07:40;;;;;;;46.08;36.22;;;;;;;;;;5070883;28;20085;-67
2022/09/08 03:10:07;;;;;;;47.33;36.03;;;;;;;;;;5072379;28;20048;-67
2022/09/08 03:12:34;;;;;;;47.85;36.55;;;;;;;;;;5057819;28;20152;-67
2022/09/08 03:15:00;;;;;;;49.58;37.75;;;;;;;;;;5071396;28;20599;-67
2022/09/08 03:17:26;;;;;;;48.83;38.35;;;;;;;;;;5071098;28;20076;-67
2022/09/08 03:19:54;;;;;;;48.35;37.22;;;;;;;;;;5070646;28;20052;-67
2022/09/08 03:22:20;;;;;;;47.13;38.53;;;;;;;;;;5071198;28;20048;-67
2022/09/08 03:24:47;;;;;;;44.10;35.65;;;;;;;;;;5070457;28;20036;-67
2022/09/08 03:27:13;;;;;;;49.70;36.67;;;;;;;;;;5070854;28;20054;-67
2022/09/08 03:29:39;;;;;;;47.45;37.78;;;;;;;;;;5069357;28;20121;-68
2022/09/08 03:32:05;;;;;;;47.28;38.13;;;;;;;;;;5087509;28;20047;-69
2022/09/08 03:34:32;;;;;;;49.20;37.78;;;;;;;;;;5070380;28;20040;-71
2022/09/08 03:36:58;;;;;;;74.78;43.15;;;;;;;;;;5072561;28;20040;-70
2022/09/08 03:39:24;;;;;;;57.25;37.83;;;;;;;;;;5071262;28;20136;-69
2022/09/08 03:41:50;;;;;;;59.67;34.80;;;;;;;;;;5071280;28;20483;-68
2022/09/08 03:44:16;;;;;;;64.93;35.38;;;;;;;;;;5072516;28;20043;-69
2022/09/08 08:59:07;;;;;;;11.25;6.70;;;;;;;;;;5038659;28;20051;-72
2022/09/08 09:01:33;;;;;;;11.25;6.82;;;;;;;;;;5067278;28;20048;-72
2022/09/08 09:04:08;;;;;;;13.40;7.13;;;;;;;;;;5073825;28;20115;-72
2022/09/08 09:06:53;;;;;;;12.20;6.40;;;;;;;;;;5074810;28;20037;-73
2022/09/08 09:09:38;;;;;;;9.77;6.55;;;;;;;;;;5050050;28;20098;-72
2022/09/08 09:12:22;;;;;;;7.93;5.95;;;;;;;;;;5060525;28;20040;-72
2022/09/08 09:14:58;;;;;;;13.52;6.00;;;;;;;;;;5065228;28;20366;-73
2022/09/08 09:17:59;;;;;;;11.63;5.72;;;;;;;;;;5073132;28;20185;-73
2022/09/08 09:20:38;;;;;;;9.95;5.35;;;;;;;;;;5035533;28;20498;-73
2022/09/08 09:23:16;;;;;;;9.73;6.22;;;;;;;;;;5068534;28;20044;-71
2022/09/08 09:25:55;;;;;;;10.88;5.70;;;;;;;;;;5056354;28;20098;-72
2022/09/08 09:28:36;;;;;;;11.18;5.82;;;;;;;;;;5029218;28;20084;-72
2022/09/08 09:31:21;;;;;;;9.75;5.47;;;;;;;;;;5067281;28;20036;-71
2022/09/08 09:33:55;;;;;;;5.63;3.40;;;;;;;;;;5072960;28;20068;-72
2022/09/08 09:36:27;;;;;;;8.55;3.20;;;;;;;;;;5073029;28;20127;-72
2022/09/08 09:38:55;;;;;;;8.50;3.17;;;;;;;;;;5056839;28;20489;-72
2022/09/08 09:41:40;;;;;;;6.43;2.70;;;;;;;;;;5056226;28;20047;-73
2022/09/08 09:44:06;;;;;;;4.53;2.25;;;;;;;;;;5056253;28;20094;-72
2022/09/08 09:46:32;;;;;;;7.63;2.80;;;;;;;;;;5072645;28;20524;-73
2022/09/08 09:49:13;;;;;;;5.75;2.70;;;;;;;;;;5073032;28;20058;-72
2022/09/08 09:51:58;;;;;;;4.40;2.60;;;;;;;;;;5072282;28;20086;-72
2022/09/08 09:54:24;;;;;;;6.53;2.60;;;;;;;;;;5072929;28;20090;-72
2022/09/08 09:57:02;;;;;;;4.57;2.50;;;;;;;;;;5073679;28;20497;-73
2022/09/08 09:59:28;;;;;;;5.45;2.42;;;;;;;;;;5072570;28;20088;-72
2022/09/08 10:01:54;;;;;;;3.78;2.15;;;;;;;;;;5072438;28;20119;-72
2022/09/08 10:04:39;;;;;;;5.68;2.60;;;;;;;;;;5072920;28;20060;-72
2022/09/08 10:07:28;;;;;;;4.13;2.35;;;;;;;;;;5072366;28;20124;-73
2022/09/08 10:10:03;;;;;;;5.78;2.78;;;;;;;;;;5072527;28;20041;-73
2022/09/08 10:12:32;;;;;;;5.65;2.95;;;;;;;;;;5020700;28;20037;-72
2022/09/08 10:15:25;;;;;;;7.82;3.10;;;;;;;;;;5089709;28;20424;-73
2022/09/08 10:18:11;;;;;;;5.28;2.75;;;;;;;;;;5072179;28;20041;-72
2022/09/08 10:20:56;;;;;;;4.07;2.50;;;;;;;;;;5072025;28;20123;-73
2022/09/08 10:23:41;;;;;;;5.35;3.00;;;;;;;;;;5048200;28;20556;-73
2022/09/08 10:26:25;;;;;;;6.40;3.33;;;;;;;;;;5072336;28;20036;-73
2022/09/08 10:29:10;;;;;;;7.65;3.28;;;;;;;;;;5052420;28;20417;-73
2022/09/08 10:31:54;;;;;;;6.00;3.45;;;;;;;;;;5071581;28;20036;-73
2022/09/08 10:34:39;;;;;;;6.30;3.70;;;;;;;;;;5055483;28;20087;-72
2022/09/08 10:37:09;;;;;;;8.10;3.90;;;;;;;;;;5072022;28;20033;-73
2022/09/08 10:39:51;;;;;;;7.35;4.10;;;;;;;;;;5071604;28;20080;-73
2022/09/08 10:42:30;;;;;;;6.15;4.60;;;;;;;;;;5071943;28;20045;-73
2022/09/08 10:45:08;;;;;;;7.47;4.50;;;;;;;;;;5072541;28;20036;-73
2022/09/08 10:48:04;;;;;;;6.80;4.20;;;;;;;;;;5071411;28;20037;-72
2022/09/08 10:50:30;;;;;;;6.68;4.30;;;;;;;;;;5063845;28;20051;-73
2022/09/08 10:53:13;;;;;;;6.15;4.38;;;;;;;;;;5071633;28;20552;-73
2022/09/08 10:55:42;;;;;;;6.63;4.70;;;;;;;;;;5071398;28;20043;-73
2022/09/08 10:58:18;;;;;;;6.38;4.72;;;;;;;;;;5055012;28;20512;-73
2022/09/08 11:00:57;;;;;;;6.95;4.53;;;;;;;;;;5022190;28;20051;-73
2022/09/08 11:03:33;;;;;;;6.32;4.45;;;;;;;;;;5066948;28;20084;-73
2022/09/08 11:06:03;;;;;;;7.10;4.82;;;;;;;;;;5071226;28;20123;-73
2022/09/08 11:08:37;;;;;;;7.60;4.80;;;;;;;;;;5071478;28;20189;-74
2022/09/08 11:11:12;;;;;;;6.88;4.32;;;;;;;;;;5067303;28;20045;-73
2022/09/08 11:13:47;;;;;;;7.38;4.55;;;;;;;;;;5062825;28;20032;-74
2022/09/08 11:16:20;;;;;;;7.28;4.90;;;;;;;;;;5071507;28;20388;-74
2022/09/08 11:19:04;;;;;;;6.50;4.13;;;;;;;;;;5071047;28;20051;-74
2022/09/08 11:21:32;;;;;;;7.90;5.30;;;;;;;;;;5015021;28;20049;-74
2022/09/08 11:24:05;;;;;;;8.70;5.32;;;;;;;;;;5073599;28;20413;-74
2022/09/08 11:26:35;;;;;;;8.27;5.78;;;;;;;;;;5071015;28;20177;-74
2022/09/08 11:29:11;;;;;;;8.40;5.95;;;;;;;;;;5068518;28;20452;-74
2022/09/08 11:31:41;;;;;;;10.27;6.50;;;;;;;;;;5071045;28;20044;-74
2022/09/08 11:34:26;;;;;;;8.82;6.78;;;;;;;;;;5071317;28;20497;-74
2022/09/08 11:37:04;;;;;;;11.60;7.30;;;;;;;;;;5021429;28;20036;-74
2022/09/08 11:39:44;;;;;;;11.82;7.82;;;;;;;;;;5066008;28;20569;-74
2022/09/08 11:42:30;;;;;;;10.55;8.45;;;;;;;;;;5054451;28;20559;-74
2022/09/08 11:44:59;;;;;;;11.63;8.27;;;;;;;;;;5070444;28;20051;-74
2022/09/08 11:47:44;;;;;;;12.25;8.82;;;;;;;;;;5072322;28;20039;-74
2022/09/08 11:50:10;;;;;;;12.10;9.10;;;;;;;;;;5070869;28;20036;-74
2022/09/08 11:52:51;;;;;;;13.10;10.05;;;;;;;;;;5070980;28;20519;-74
2022/09/08 11:55:36;;;;;;;15.05;10.00;;;;;;;;;;5071102;28;20454;-74
2022/09/08 11:58:32;;;;;;;13.23;10.15;;;;;;;;;;5070350;28;20060;-74
2022/09/08 12:01:01;;;;;;;14.05;9.88;;;;;;;;;;5043868;28;20045;-74
2022/09/08 12:03:43;;;;;;;14.23;10.15;;;;;;;;;;5050064;28;20481;-74
2022/09/08 12:06:13;;;;;;;12.38;9.65;;;;;;;;;;5072148;28;20056;-74
2022/09/08 12:08:45;;;;;;;12.35;10.43;;;;;;;;;;5071980;28;20075;-75
2022/09/08 12:11:11;;;;;;;16.35;10.55;;;;;;;;;;5065440;28;20095;-75
2022/09/08 12:13:56;;;;;;;14.32;10.90;;;;;;;;;;5062155;28;20047;-74
2022/09/08 12:16:40;;;;;;;15.75;11.30;;;;;;;;;;5042990;28;20139;-75
2022/09/08 12:19:12;;;;;;;16.00;11.25;;;;;;;;;;5087010;28;20086;-75
2022/09/08 12:21:39;;;;;;;13.85;11.02;;;;;;;;;;5054333;28;20440;-75
2022/09/08 12:24:08;;;;;;;15.93;11.55;;;;;;;;;;5070174;28;20076;-75
2022/09/08 12:26:37;;;;;;;14.10;11.57;;;;;;;;;;5059809;28;20036;-75
2022/09/08 12:29:22;;;;;;;13.40;11.35;;;;;;;;;;5067664;28;20463;-75
2022/09/08 12:32:08;;;;;;;18.00;11.77;;;;;;;;;;5020959;28;20060;-75
2022/09/08 12:34:47;;;;;;;15.18;11.88;;;;;;;;;;5064499;28;20206;-75
2022/09/08 12:37:14;;;;;;;14.50;12.18;;;;;;;;;;5060364;28;20079;-75
2022/09/08 12:39:43;;;;;;;15.65;11.45;;;;;;;;;;5070289;28;20044;-75
2022/09/08 12:42:12;;;;;;;16.35;11.43;;;;;;;;;;5053475;28;20037;-75
2022/09/08 12:44:48;;;;;;;15.15;11.77;;;;;;;;;;5070390;28;20512;-75
2022/09/08 12:47:14;;;;;;;13.55;12.10;;;;;;;;;;5053649;28;20037;-75
2022/09/08 12:49:48;;;;;;;14.57;11.25;;;;;;;;;;5057525;28;20122;-75
2022/09/08 12:52:34;;;;;;;15.75;11.23;;;;;;;;;;5053989;28;20123;-75
2022/09/08 12:55:09;;;;;;;14.00;11.13;;;;;;;;;;5071041;28;20111;-75
2022/09/08 12:57:44;;;;;;;13.85;11.30;;;;;;;;;;5071628;28;20068;-74
2022/09/08 13:00:14;;;;;;;13.65;11.38;;;;;;;;;;5071198;28;20052;-75
2022/09/08 13:02:40;;;;;;;16.25;12.35;;;;;;;;;;5070548;28;20048;-74
2022/09/08 13:05:15;;;;;;;22.33;13.63;;;;;;;;;;5069876;28;20040;-71
2022/09/08 13:07:47;;;;;;;26.55;14.35;;;;;;;;;;5073727;28;20060;-71
2022/09/08 13:10:32;;;;;;;15.50;8.48;;;;;;;;;;5073331;28;20090;-70
2022/09/08 13:13:17;;;;;;;12.10;8.13;;;;;;;;;;5046382;28;20489;-71
2022/09/08 13:15:46;;;;;;;9.52;6.40;;;;;;;;;;5073502;28;20044;-71
2022/09/08 13:18:21;;;;;;;8.82;6.53;;;;;;;;;;5073223;28;20033;-71
2022/09/08 13:20:58;;;;;;;10.77;8.10;;;;;;;;;;5073601;28;20075;-72
2022/09/08 13:23:42;;;;;;;12.43;8.10;;;;;;;;;;5073436;28;20093;-72
2022/09/08 13:26:27;;;;;;;10.82;8.10;;;;;;;;;;5073452;28;20080;-73
2022/09/08 13:29:18;;;;;;;14.32;9.57;;;;;;;;;;5070678;28;20072;-73
2022/09/08 13:31:50;;;;;;;11.00;9.68;;;;;;;;;;5074886;28;20033;-73
2022/09/08 13:34:16;;;;;;;11.80;9.38;;;;;;;;;;5072805;28;20072;-72
2022/09/08 13:36:49;;;;;;;12.23;9.45;;;;;;;;;;5056456;28;20109;-71
2022/09/08 13:39:35;;;;;;;13.85;9.75;;;;;;;;;;5056157;28;20045;-72
2022/09/08 13:42:15;;;;;;;10.77;9.18;;;;;;;;;;5047861;28;20136;-72
2022/09/08 13:44:56;;;;;;;13.68;9.63;;;;;;;;;;5073160;28;20048;-72
2022/09/08 13:47:40;;;;;;;12.40;9.07;;;;;;;;;;5074123;28;20059;-71
2022/09/08 13:50:25;;;;;;;11.18;8.80;;;;;;;;;;5072530;28;20036;-72
2022/09/08 13:53:10;;;;;;;11.63;9.88;;;;;;;;;;5073363;28;20481;-71
2022/09/08 13:55:43;;;;;;;11.02;8.50;;;;;;;;;;5047481;28;20374;-71
2022/09/08 13:58:12;;;;;;;11.32;9.18;;;;;;;;;;5072244;28;20056;-71
2022/09/08 14:00:57;;;;;;;10.77;8.77;;;;;;;;;;5073066;28;20393;-71
2022/09/08 14:03:24;;;;;;;12.43;8.82;;;;;;;;;;5072598;28;20574;-71
2022/09/08 14:05:52;;;;;;;12.23;9.30;;;;;;;;;;5056048;28;20520;-71
2022/09/08 14:08:23;;;;;;;12.52;9.38;;;;;;;;;;5072398;28;20056;-71
2022/09/08 14:11:04;;;;;;;12.95;9.63;;;;;;;;;;5070016;28;20162;-71
2022/09/08 14:13:34;;;;;;;13.40;9.75;;;;;;;;;;5063545;28;20397;-71
2022/09/08 14:16:19;;;;;;;13.02;10.63;;;;;;;;;;5055257;28;20041;-71
2022/09/08 14:18:54;;;;;;;13.02;10.05;;;;;;;;;;5072433;28;20096;-74
2022/09/08 14:21:29;;;;;;;14.05;10.43;;;;;;;;;;5072385;28;20485;-75
2022/09/08 14:23:58;;;;;;;10.88;9.75;;;;;;;;;;5055839;28;20040;-75
2022/09/08 14:26:24;;;;;;;12.57;10.20;;;;;;;;;;5055513;28;20053;-74
2022/09/08 14:29:09;;;;;;;13.30;9.95;;;;;;;;;;5069652;28;20135;-75
2022/09/08 14:31:35;;;;;;;14.35;11.05;;;;;;;;;;5072391;28;20048;-74
2022/09/08 14:34:15;;;;;;;16.70;11.30;;;;;;;;;;5071923;28;20044;-71
2022/09/08 14:36:52;;;;;;;14.60;10.70;;;;;;;;;;5072341;28;20477;-71
2022/09/08 14:39:37;;;;;;;13.75;11.13;;;;;;;;;;5054932;28;20127;-71
2022/09/08 14:42:33;;;;;;;15.27;11.07;;;;;;;;;;5047427;28;20451;-71
2022/09/08 14:45:05;;;;;;;14.60;11.33;;;;;;;;;;5058914;28;20127;-70
2022/09/08 14:47:34;;;;;;;12.80;9.50;;;;;;;;;;5071850;28;20334;-71
2022/09/08 14:50:04;;;;;;;13.77;10.00;;;;;;;;;;5071564;28;20039;-70
2022/09/08 14:52:33;;;;;;;13.98;9.48;;;;;;;;;;5055480;28;20044;-70
2022/09/08 14:55:05;;;;;;;13.10;9.68;;;;;;;;;;5071535;28;20068;-72
2022/09/08 14:57:53;;;;;;;12.93;9.27;;;;;;;;;;5071575;28;20055;-71
2022/09/08 15:00:24;;;;;;;13.52;8.90;;;;;;;;;;5071056;28;20119;-71
2022/09/08 15:02:50;;;;;;;14.60;8.00;;;;;;;;;;5071658;28;20045;-71
2022/09/08 15:05:18;;;;;;;11.32;7.97;;;;;;;;;;5070866;28;20079;-71
2022/09/08 15:07:50;;;;;;;10.98;7.85;;;;;;;;;;5071719;28;20115;-71
2022/09/08 15:10:29;;;;;;;9.40;5.93;;;;;;;;;;5071289;28;20511;-71
2022/09/08 15:12:55;;;;;;;6.40;4.18;;;;;;;;;;5057308;28;20048;-71
2022/09/08 15:15:31;;;;;;;8.90;3.70;;;;;;;;;;5054139;28;20041;-71
2022/09/08 15:17:58;;;;;;;6.72;3.40;;;;;;;;;;5071247;28;20051;-70
2022/09/08 15:20:24;;;;;;;6.95;3.55;;;;;;;;;;5070793;28;20048;-70
2022/09/08 15:23:03;;;;;;;8.70;3.30;;;;;;;;;;5088357;28;20501;-71
2022/09/08 15:25:40;;;;;;;5.53;3.10;;;;;;;;;;5070785;28;20052;-72
2022/09/08 15:28:25;;;;;;;8.38;3.20;;;;;;;;;;5068710;28;20119;-71
2022/09/08 15:31:11;;;;;;;6.20;3.22;;;;;;;;;;5088135;28;20037;-71
2022/09/08 15:33:37;;;;;;;;;;;;;;;;;;5039909;28;20033;-70
2022/09/08 15:36:03;;;;;;;;;;;;;;;;;;5066790;28;19916;-68
2022/09/08 15:38:38;;;;;;;8.40;3.60;;;;;;;;;;5070882;28;19923;-70
2022/09/08 15:41:13;;;;;;;7.20;3.10;;;;;;;;;;5057755;28;20138;-69
2022/09/08 15:43:54;;;;;;;6.63;3.35;;;;;;;;;;5045219;28;20051;-74
2022/09/08 15:46:41;;;;;;;9.23;3.60;;;;;;;;;;5070813;28;20401;-74
2022/09/08 15:49:17;;;;;;;9.85;3.40;;;;;;;;;;5071506;28;20045;-74
2022/09/08 15:51:49;;;;;;;8.95;3.30;;;;;;;;;;5071172;28;20039;-75
2022/09/08 15:54:38;;;;;;;10.02;3.25;;;;;;;;;;5054087;28;20047;-75
2022/09/08 15:57:23;;;;;;;9.20;2.95;;;;;;;;;;5051433;28;20043;-75
2022/09/08 16:00:09;;;;;;;7.55;3.17;;;;;;;;;;5051302;28;20056;-75
2022/09/08 16:02:47;;;;;;;7.38;2.95;;;;;;;;;;5032158;28;20110;-75
2022/09/08 16:05:23;;;;;;;6.18;2.70;;;;;;;;;;5056257;28;20165;-71
2022/09/08 16:07:53;;;;;;;7.15;2.90;;;;;;;;;;5071945;28;20512;-70
2022/09/08 16:10:20;;;;;;;8.82;3.45;;;;;;;;;;5070388;28;20036;-70
2022/09/08 16:12:49;;;;;;;6.57;2.85;;;;;;;;;;5056651;28;20078;-70
2022/09/08 16:15:21;;;;;;;5.25;2.90;;;;;;;;;;5070449;28;20477;-71
2022/09/08 16:18:02;;;;;;;5.28;2.63;;;;;;;;;;5053941;28;20032;-70
2022/09/08 16:20:28;;;;;;;7.88;3.00;;;;;;;;;;5053748;28;20037;-70
2022/09/08 16:22:56;;;;;;;7.90;2.78;;;;;;;;;;5053666;28;20111;-69
2022/09/08 16:25:32;;;;;;;6.97;2.83;;;;;;;;;;5070252;28;20107;-70
2022/09/08 16:27:58;;;;;;;;;;;;;;;;;;5067972;28;20039;-70
2022/09/08 16:30:24;;;;;;;;;;;;;;;;;;5070604;28;19917;-71
2022/09/08 16:33:01;;;;;;;6.90;2.85;;;;;;;;;;5071730;28;19942;-70
2022/09/08 16:35:30;;;;;;;7.13;2.70;;;;;;;;;;5070270;28;20044;-70
2022/09/08 16:37:56;;;;;;;7.57;2.60;;;;;;;;;;5068543;28;20047;-70
2022/09/08 16:40:25;;;;;;;7.75;2.30;;;;;;;;;;5027228;28;20048;-70
2022/09/08 16:42:53;;;;;;;8.65;2.67;;;;;;;;;;5074155;28;20044;-68
2022/09/08 16:45:29;;;;;;;6.82;2.63;;;;;;;;;;5073921;28;20070;-70
2022/09/08 16:48:01;;;;;;;6.88;2.42;;;;;;;;;;5074154;28;20117;-70
2022/09/08 16:50:32;;;;;;;8.98;2.70;;;;;;;;;;5074140;28;20505;-70
2022/09/08 16:53:02;;;;;;;9.40;2.90;;;;;;;;;;5073999;28;20082;-70
2022/09/08 16:55:44;;;;;;;10.93;2.95;;;;;;;;;;5059810;28;20072;-70
2022/09/08 16:58:16;;;;;;;10.82;3.05;;;;;;;;;;5073867;28;20061;-70
2022/09/08 17:01:03;;;;;;;8.23;2.80;;;;;;;;;;5057676;28;20519;-70
2022/09/08 17:03:47;;;;;;;8.80;3.05;;;;;;;;;;5074621;28;20052;-70
2022/09/08 17:06:27;;;;;;;8.45;2.90;;;;;;;;;;5075021;28;20059;-70
2022/09/08 17:08:59;;;;;;;9.45;2.75;;;;;;;;;;5073904;28;20041;-70
2022/09/08 17:11:40;;;;;;;10.52;3.50;;;;;;;;;;5066105;28;20497;-70
2022/09/08 17:14:10;;;;;;;10.15;3.05;;;;;;;;;;5069239;28;20047;-70
2022/09/08 17:16:49;;;;;;;9.20;3.30;;;;;;;;;;5073498;28;20450;-70
2022/09/08 17:19:24;;;;;;;11.35;3.72;;;;;;;;;;5073498;28;20110;-70
2022/09/08 17:21:50;;;;;;;5.68;3.05;;;;;;;;;;5073681;28;20127;-70
2022/09/08 17:24:36;;;;;;;9.00;3.30;;;;;;;;;;5073331;28;20098;-69
2022/09/08 17:27:11;;;;;;;10.82;3.30;;;;;;;;;;5052951;28;20102;-70
2022/09/08 17:29:37;;;;;;;11.73;4.35;;;;;;;;;;5070365;28;20032;-69
2022/09/08 17:32:06;;;;;;;8.55;3.88;;;;;;;;;;5056771;28;20116;-69
2022/09/08 17:34:37;;;;;;;8.50;4.00;;;;;;;;;;5074132;28;20052;-69
2022/09/08 17:37:14;;;;;;;7.13;3.92;;;;;;;;;;5073618;28;20527;-69
2022/09/08 17:39:46;;;;;;;8.20;4.70;;;;;;;;;;5056233;28;20044;-69
2022/09/08 17:42:23;;;;;;;13.40;7.00;;;;;;;;;;5074354;28;20032;-70
2022/09/08 17:45:00;;;;;;;8.25;5.10;;;;;;;;;;5073001;28;20114;-70
2022/09/08 17:47:26;;;;;;;11.30;5.18;;;;;;;;;;5072592;28;20048;-69
2022/09/08 17:50:02;;;;;;;11.15;4.28;;;;;;;;;;5072984;28;20068;-69
2022/09/08 17:52:28;;;;;;;;;;;;;;;;;;5072326;28;20051;-69
2022/09/08 17:55:06;;;;;;;7.75;4.40;;;;;;;;;;5073183;28;19916;-69
2022/09/08 17:57:38;;;;;;;9.45;4.30;;;;;;;;;;5072177;28;20060;-69
2022/09/08 18:00:30;;;;;;;7.55;4.38;;;;;;;;;;5074010;28;20090;-69
2022/09/08 18:03:25;;;;;;;8.10;4.30;;;;;;;;;;5071382;28;20040;-68
2022/09/08 18:05:53;;;;;;;9.00;4.15;;;;;;;;;;5047897;28;20090;-68
2022/09/08 18:08:22;;;;;;;11.60;5.03;;;;;;;;;;5072287;28;20071;-68
2022/09/08 18:10:51;;;;;;;11.48;4.70;;;;;;;;;;5042568;28;20032;-68
2022/09/08 18:13:31;;;;;;;7.82;5.13;;;;;;;;;;5061602;28;20397;-68
2022/09/08 18:16:06;;;;;;;8.30;4.63;;;;;;;;;;5071544;28;20040;-74
2022/09/08 18:18:36;;;;;;;9.35;4.75;;;;;;;;;;5054414;28;20099;-74
2022/09/08 18:21:14;;;;;;;9.50;4.57;;;;;;;;;;5038802;28;20037;-68
2022/09/08 18:23:43;;;;;;;7.00;4.43;;;;;;;;;;5055182;28;20119;-68
2022/09/08 18:26:09;;;;;;;12.52;5.30;;;;;;;;;;5070046;28;20063;-73
2022/09/08 18:28:44;;;;;;;11.57;4.80;;;;;;;;;;5053245;28;20558;-74
2022/09/08 18:31:10;;;;;;;;;;;;;;;;;;5036951;28;20421;-73
2022/09/08 18:33:48;;;;;;;11.25;4.90;;;;;;;;;;5053010;28;19977;-75
2022/09/08 18:36:33;;;;;;;8.68;5.20;;;;;;;;;;5052943;28;20402;-75
2022/09/08 18:38:59;;;;;;;9.18;4.90;;;;;;;;;;5036552;28;20507;-76
2022/09/08 18:41:32;;;;;;;11.93;5.40;;;;;;;;;;5052690;28;20582;-75
2022/09/08 18:44:11;;;;;;;9.07;5.40;;;;;;;;;;5052734;28;20041;-75
2022/09/08 18:47:00;;;;;;;9.90;5.82;;;;;;;;;;5053354;28;20128;-75
2022/09/08 18:49:42;;;;;;;12.73;6.10;;;;;;;;;;5036301;28;20394;-75
2022/09/08 18:52:24;;;;;;;10.88;6.70;;;;;;;;;;5062419;28;20033;-75
2022/09/08 18:55:09;;;;;;;12.55;6.93;;;;;;;;;;5057294;28;20124;-75
2022/09/08 18:57:36;;;;;;;12.02;7.43;;;;;;;;;;5044740;28;20060;-75
2022/09/08 19:00:14;;;;;;;12.80;7.57;;;;;;;;;;5057508;28;20127;-75
2022/09/08 19:02:42;;;;;;;21.40;7.45;;;;;;;;;;5060388;28;20124;-73
2022/09/08 19:05:11;;;;;;;13.07;6.57;;;;;;;;;;5071178;28;20066;-73
2022/09/08 19:07:43;;;;;;;20.13;7.15;;;;;;;;;;5071098;28;20056;-73
2022/09/08 19:10:33;;;;;;;14.02;6.35;;;;;;;;;;5072438;28;20037;-74
2022/09/08 19:13:04;;;;;;;14.60;5.03;;;;;;;;;;5044938;28;20043;-74
2022/09/08 19:15:42;;;;;;;15.73;5.80;;;;;;;;;;5054857;28;20041;-74
2022/09/08 19:18:12;;;;;;;11.70;4.60;;;;;;;;;;5071344;28;20070;-74
2022/09/08 19:20:51;;;;;;;11.38;4.30;;;;;;;;;;5071176;28;20098;-74
2022/09/08 19:23:18;;;;;;;10.45;5.00;;;;;;;;;;5046100;28;20060;-74
2022/09/08 19:25:57;;;;;;;12.82;5.50;;;;;;;;;;5070980;28;20049;-74
2022/09/08 19:28:30;;;;;;;10.00;5.20;;;;;;;;;;5071243;28;20049;-74
2022/09/08 19:31:02;;;;;;;10.73;5.75;;;;;;;;;;5071148;28;20063;-74
2022/09/08 19:33:37;;;;;;;11.20;5.38;;;;;;;;;;5071093;28;20044;-74
2022/09/08 19:36:15;;;;;;;11.32;5.32;;;;;;;;;;5054781;28;20531;-74
2022/09/08 19:39:00;;;;;;;12.32;5.53;;;;;;;;;;5072105;28;20048;-74
2022/09/08 19:41:27;;;;;;;12.00;4.80;;;;;;;;;;5070908;28;20099;-75
2022/09/08 19:44:00;;;;;;;9.57;5.03;;;;;;;;;;5070964;28;20444;-74
2022/09/08 19:46:30;;;;;;;11.68;5.20;;;;;;;;;;5072039;28;20048;-74
2022/09/08 19:48:58;;;;;;;12.45;5.55;;;;;;;;;;5054302;28;20485;-74
2022/09/08 19:51:30;;;;;;;9.25;5.38;;;;;;;;;;5071064;28;20394;-74
2022/09/08 19:54:17;;;;;;;20.65;6.68;;;;;;;;;;5070689;28;20097;-74
2022/09/08 19:56:53;;;;;;;11.90;5.63;;;;;;;;;;5070227;28;20044;-72
2022/09/08 19:59:29;;;;;;;12.02;6.22;;;;;;;;;;5070442;28;20056;-71
2022/09/08 20:02:14;;;;;;;14.52;6.47;;;;;;;;;;5070441;28;20045;-71
2022/09/08 20:04:59;;;;;;;10.95;5.30;;;;;;;;;;5070572;28;20081;-71
2022/09/08 20:07:40;;;;;;;9.23;4.90;;;;;;;;;;5043732;28;20055;-71
2022/09/08 20:10:26;;;;;;;11.40;5.43;;;;;;;;;;5071821;28;20173;-70
2022/09/08 20:13:01;;;;;;;13.57;7.30;;;;;;;;;;5056018;28;20086;-71
2022/09/08 20:15:32;;;;;;;14.13;6.40;;;;;;;;;;5073182;28;20052;-71
2022/09/08 20:18:05;;;;;;;9.98;6.32;;;;;;;;;;5074252;28;20111;-71
2022/09/08 20:20:36;;;;;;;12.45;7.15;;;;;;;;;;5074924;28;20509;-71
2022/09/08 20:23:02;;;;;;;13.35;7.72;;;;;;;;;;5074448;28;20404;-71
2022/09/08 20:25:47;;;;;;;15.00;7.55;;;;;;;;;;5074748;28;20497;-71
2022/09/08 20:28:32;;;;;;;13.40;7.80;;;;;;;;;;5071633;28;20105;-71